• Join FlightAware (Why Join?)
  • Login
  • US Flag 
08:34PM EST


 

Airport Tracker/Info


-or-


 

Live Flight TrackerFlight Track Log ✈ N2895W ✈ 26-Jul-2013 ✈ KDMW - 9G3

Flight Track Log - Related Links

Times and Time Zones

All times are in EDT time to prevent confusion due to time zone crossing. See the N2895W flight status page for this flight to view local times or setup timezone preferences in your user account.

Time Position Orientation Groundspeed Altitude Reporting Facility
EDT Latitude Longitude Course Direction KTS MPH feet Rate Location/Type
11:05AM 39.8167 -77.0833 336° Northwest 104 120 8,000  Level Potomac TRACON
11:07AM 39.8739 -77.1169 336° Northwest 126 145 8,500 120 Climbing New York Center
11:08AM 39.9189 -77.1347 343° North 138 159 8,500  Level New York Center
11:09AM 39.9556 -77.1486 344° North 144 166 8,500 420 Level New York Center
11:10AM 39.9922 -77.1656 341° North 138 159 9,400 420 Climbing New York Center
11:11AM 40.0250 -77.1794 342° North 132 152 9,400  Level New York Center
11:12AM 40.0719 -77.1975 344° North 144 166 9,400  Level New York Center
11:13AM 40.1106 -77.2144 341° North 151 174 9,400  Level New York Center
11:14AM 40.1575 -77.2350 341° North 157 181 9,500  Climbing New York Center
11:15AM 40.1961 -77.2522 341° North 162 186 9,400 -60 Descending New York Center
11:16AM 40.2431 -77.2703 344° North 162 186 9,400  Level New York Center
11:17AM 40.2839 -77.2878 342° North 162 186 9,400  Level New York Center
11:18AM 40.3306 -77.3086 341° North 162 186 9,400  Level New York Center
11:19AM 40.3692 -77.3258 341° North 168 193 9,400  Level New York Center
11:20AM 40.4181 -77.3467 342° North 162 186 9,400  Level New York Center
11:21AM 40.4589 -77.3617 344° North 162 186 9,400  Level New York Center
11:22AM 40.5036 -77.3822 341° North 162 186 9,400  Level New York Center
11:23AM 40.5444 -77.3997 342° North 167 192 9,400  Level New York Center
11:24AM 40.5911 -77.4208 341° North 167 192 9,400  Level New York Center
11:25AM 40.6319 -77.4356 345° North 167 192 9,400  Level New York Center
11:26AM 40.6789 -77.4567 341° North 167 192 9,500  Climbing New York Center
11:27AM 40.7214 -77.4744 342° North 167 192 9,500  Level New York Center
11:28AM 40.7642 -77.4922 343° North 167 192 9,500 -120 Level New York Center
11:29AM 40.8131 -77.5136 342° North 167 192 9,300 -360 Descending New York Center
11:30AM 40.8617 -77.5375 340° North 167 192 8,800 -300 Descending New York Center
11:31AM 40.9067 -77.5558 343° North 167 192 8,700 -120 Descending New York Center
11:32AM 40.9533 -77.5742 343° North 167 192 8,600 -60 Descending New York Center
11:33AM 40.9964 -77.5894 345° North 162 186 8,600  Level New York Center
11:34AM 41.0411 -77.6106 340° North 162 186 8,600  Level New York Center
11:35AM 41.0836 -77.6286 342° North 162 186 8,600  Level New York Center
11:36AM 41.1264 -77.6494 340° North 162 186 8,600  Level New York Center
11:37AM 41.1689 -77.6675 342° North 162 186 8,600  Level New York Center
11:38AM 41.2117 -77.6856 342° North 162 186 8,600  Level New York Center
11:40AM 41.3053 -77.7222 344° North 168 193 8,600  Level Cleveland Center
11:41AM 41.3472 -77.7425 340° North 168 193 8,600  Level Cleveland Center
11:42AM 41.3894 -77.7628 340° North 168 193 8,600  Level Cleveland Center
11:43AM 41.4339 -77.7831 341° North 168 193 8,600  Level Cleveland Center
11:44AM 41.4781 -77.8006 343° North 168 193 8,600  Level Cleveland Center
11:45AM 41.5203 -77.8236 338° Northwest 168 193 8,600  Level Cleveland Center
11:46AM 41.5644 -77.8383 346° North 168 193 8,600  Level Cleveland Center
11:47AM 41.6067 -77.8589 340° North 168 193 8,600 -60 Level Cleveland Center
11:48AM 41.6508 -77.8792 341° North 168 193 8,500 -60 Descending Cleveland Center
11:49AM 41.6950 -77.8967 344° North 168 193 8,500  Level Cleveland Center
11:50AM 41.7414 -77.9172 342° North 168 193 8,500  Level Cleveland Center
11:51AM 41.7856 -77.9319 346° North 168 193 8,500  Level Cleveland Center
11:52AM 41.8339 -77.9522 343° North 168 193 8,500  Level Cleveland Center
11:53AM 41.8783 -77.9756 339° North 168 193 8,500  Level Cleveland Center
11:54AM 41.9267 -77.9958 343° North 175 201 8,500  Level Cleveland Center
11:55AM 41.9708 -78.0164 341° North 170 196 8,500  Level Cleveland Center
11:56AM 42.0150 -78.0342 343° North 170 196 8,500  Level Cleveland Center
11:57AM 42.0572 -78.0522 342° North 170 196 8,500  Level Cleveland Center
11:58AM 42.1036 -78.0728 342° North 170 196 8,500  Level Cleveland Center
11:59AM 42.1478 -78.0933 341° North 170 196 8,500  Level Cleveland Center
12:00PM 42.1919 -78.1142 341° North 170 196 8,500  Level Cleveland Center
12:01PM 42.2361 -78.1319 343° North 170 196 8,500  Level Cleveland Center
12:02PM 42.2803 -78.1528 341° North 170 196 8,500  Level Cleveland Center
12:03PM 42.3247 -78.1736 341° North 170 196 8,500  Level Cleveland Center
12:04PM 42.3708 -78.1914 344° North 170 196 8,500  Level Cleveland Center
12:05PM 42.4150 -78.2122 341° North 170 196 8,500  Level Cleveland Center
12:06PM 42.4592 -78.2303 343° North 170 196 8,500 -300 Level Cleveland Center
12:07PM 42.5056 -78.2511 342° North 170 196 7,900 -660 Descending Cleveland Center
12:08PM 42.5558 -78.2747 341° North 170 196 7,200 -720 Descending Cleveland Center
12:09PM 42.6064 -78.2925 345° North 170 196 6,500 -780 Descending Cleveland Center
12:10PM 42.6547 -78.3133 342° North 170 196 5,700 -780 Descending Cleveland Center
12:11PM 42.7011 -78.3372 339° North 170 196 5,000 -720 Descending Cleveland Center
12:12PM 42.7475 -78.3636 337° Northwest 170 196 4,300 -660 Descending Cleveland Center
12:15PM 42.8500 -78.4000 345° North 166 191 3,000 -540 Descending Buffalo TRACON
12:16PM 42.8833 -78.4167 340° North 159 183 2,600 -360 Descending Buffalo TRACON
12:17PM 42.9333 -78.4333 346° North 156 180 2,300 -180 Descending Buffalo TRACON
12:18PM 42.9667 -78.4667 324° Northwest 151 174 2,300  Level Buffalo TRACON
12:19PM 43.0000 -78.4833 340° North 145 167 2,400 120 Climbing Buffalo TRACON
12:20PM 43.0333 -78.5167 324° Northwest 142 163 2,600 -60 Climbing Buffalo TRACON
12:21PM 43.0667 -78.4833 36° Northeast 142 163 2,300 -540 Descending Buffalo TRACON
12:22PM 43.0333 -78.5000 200° South 132 152 1,600 -720 Descending Buffalo TRACON